Time;durP1;ratioP1;P1;durP2;ratioP2;P2;SDS_P1;SDS_P2;PMS_P1;PMS_P2;Temp;Humidity;BMP_temperature;BMP_pressure;BME280_temperature;BME280_humidity;BME280_pressure;Samples;Min_cycle;Max_cycle;Signal;HPM_P1;HPM_P2
2021/07/06 00:00:24;;;;;;;3.50;1.50;;;;;;;;;;5107847;27;20577;-71
2021/07/06 00:02:55;;;;;;;3.30;1.50;;;;;;;;;;5096531;28;20515;-72
2021/07/06 00:05:22;;;;;;;3.53;1.40;;;;;;;;;;5101712;28;20467;-71
2021/07/06 00:07:50;;;;;;;3.13;1.60;;;;;;;;;;5106611;27;20940;-71
2021/07/06 00:10:19;;;;;;;3.10;1.50;;;;;;;;;;5107241;27;20526;-71
2021/07/06 00:12:46;;;;;;;4.17;1.97;;;;;;;;;;5119990;27;20742;-71
2021/07/06 00:15:13;;;;;;;4.17;1.80;;;;;;;;;;5110591;28;20557;-71
2021/07/06 00:17:40;;;;;;;5.47;1.90;;;;;;;;;;5119929;27;20540;-71
2021/07/06 00:20:09;;;;;;;3.70;1.90;;;;;;;;;;5119985;27;21406;-71
2021/07/06 00:22:36;;;;;;;3.37;1.87;;;;;;;;;;5119927;27;20897;-71
2021/07/06 00:25:04;;;;;;;6.20;1.63;;;;;;;;;;5117806;27;20435;-71
2021/07/06 00:27:31;;;;;;;3.37;1.73;;;;;;;;;;5104488;28;20444;-71
2021/07/06 00:29:58;;;;;;;4.80;2.30;;;;;;;;;;5113265;28;20479;-71
2021/07/06 00:32:25;;;;;;;4.13;1.93;;;;;;;;;;5110226;27;20543;-71
2021/07/06 00:34:52;;;;;;;3.60;1.90;;;;;;;;;;5119789;27;20443;-71
2021/07/06 00:37:21;;;;;;;5.83;2.17;;;;;;;;;;5119661;27;20894;-71
2021/07/06 00:39:48;;;;;;;4.30;1.77;;;;;;;;;;5118383;27;20579;-72
2021/07/06 00:42:15;;;;;;;3.40;1.90;;;;;;;;;;5118186;27;20941;-71
2021/07/06 00:44:42;;;;;;;4.57;2.03;;;;;;;;;;5113421;27;20475;-71
2021/07/06 00:47:09;;;;;;;3.97;1.93;;;;;;;;;;5103159;28;20545;-71
2021/07/06 00:49:36;;;;;;;4.13;2.20;;;;;;;;;;5119216;27;20533;-71
2021/07/06 00:52:03;;;;;;;5.17;2.03;;;;;;;;;;5117753;27;20442;-71
2021/07/06 00:54:31;;;;;;;3.83;2.07;;;;;;;;;;5120349;27;20504;-71
2021/07/06 00:56:59;;;;;;;3.70;1.87;;;;;;;;;;5115451;27;20583;-71
2021/07/06 00:59:26;;;;;;;6.30;2.23;;;;;;;;;;5106115;28;20522;-71
2021/07/06 01:01:53;;;;;;;3.70;2.20;;;;;;;;;;5098802;28;20844;-71
2021/07/06 01:04:20;;;;;;;3.63;2.00;;;;;;;;;;5099440;28;20448;-71
2021/07/06 01:06:47;;;;;;;5.00;2.20;;;;;;;;;;5118637;27;20889;-71
2021/07/06 01:09:14;;;;;;;3.80;1.83;;;;;;;;;;5118354;27;20471;-71
2021/07/06 01:11:42;;;;;;;3.60;2.00;;;;;;;;;;5118329;27;20515;-71
2021/07/06 01:14:09;;;;;;;3.60;1.90;;;;;;;;;;5113248;27;20576;-71
2021/07/06 01:16:37;;;;;;;4.90;1.90;;;;;;;;;;5109399;28;20447;-71
2021/07/06 01:19:04;;;;;;;4.60;1.80;;;;;;;;;;5118833;27;20489;-71
2021/07/06 01:21:37;;;;;;;4.17;2.43;;;;;;;;;;5118986;27;20526;-71
2021/07/06 01:24:05;;;;;;;4.90;1.70;;;;;;;;;;5118494;27;21063;-71
2021/07/06 01:26:33;;;;;;;4.40;1.73;;;;;;;;;;5113628;28;20490;-71
2021/07/06 01:29:00;;;;;;;5.43;2.33;;;;;;;;;;5102525;28;20546;-71
2021/07/06 01:31:27;;;;;;;6.37;2.07;;;;;;;;;;5098084;28;20551;-71
2021/07/06 01:33:56;;;;;;;4.57;1.90;;;;;;;;;;5110975;27;20482;-71
2021/07/06 01:36:23;;;;;;;3.57;1.93;;;;;;;;;;5111180;27;20452;-71
2021/07/06 01:38:51;;;;;;;4.30;2.10;;;;;;;;;;5106232;28;20746;-71
2021/07/06 01:41:23;;;;;;;4.73;2.10;;;;;;;;;;5117769;27;20446;-71
2021/07/06 01:43:50;;;;;;;4.20;2.37;;;;;;;;;;5118291;27;20787;-71
2021/07/06 01:46:17;;;;;;;4.93;2.23;;;;;;;;;;5117438;27;20537;-71
2021/07/06 01:48:47;;;;;;;4.33;1.80;;;;;;;;;;5117823;27;20893;-71
2021/07/06 01:51:14;;;;;;;3.83;2.30;;;;;;;;;;5109967;27;20444;-71
2021/07/06 01:53:41;;;;;;;3.60;2.10;;;;;;;;;;5118447;27;20479;-71
2021/07/06 01:56:09;;;;;;;5.60;2.10;;;;;;;;;;5118552;27;20466;-71
2021/07/06 01:58:36;;;;;;;4.33;2.33;;;;;;;;;;5116821;27;20494;-72
2021/07/06 02:01:04;;;;;;;4.37;2.23;;;;;;;;;;5118580;27;20523;-71
2021/07/06 02:03:32;;;;;;;4.87;2.20;;;;;;;;;;5118312;27;20885;-71
2021/07/06 02:05:59;;;;;;;4.17;2.20;;;;;;;;;;5117682;27;20594;-71
2021/07/06 02:08:30;;;;;;;16.60;2.90;;;;;;;;;;5109299;28;20451;-72
2021/07/06 02:10:59;;;;;;;4.20;2.37;;;;;;;;;;5118665;27;20470;-71
2021/07/06 02:13:29;;;;;;;5.60;3.10;;;;;;;;;;5118247;27;20475;-71
2021/07/06 02:15:58;;;;;;;5.20;2.27;;;;;;;;;;5099216;28;22744;-71
2021/07/06 02:18:27;;;;;;;3.87;1.93;;;;;;;;;;5111952;27;20481;-71
2021/07/06 02:20:55;;;;;;;4.33;2.20;;;;;;;;;;5115905;27;20454;-71
2021/07/06 02:23:29;;;;;;;8.87;3.13;;;;;;;;;;5111699;27;20454;-71
2021/07/06 02:25:56;;;;;;;4.80;2.53;;;;;;;;;;5117925;27;20489;-71
2021/07/06 02:28:23;;;;;;;8.83;2.90;;;;;;;;;;5116538;27;20542;-71
2021/07/06 02:31:08;;;;;;;5.20;2.87;;;;;;;;;;5118098;27;20446;-71
2021/07/06 02:33:36;;;;;;;4.47;2.10;;;;;;;;;;5116772;27;20462;-71
2021/07/06 02:36:04;;;;;;;4.13;2.73;;;;;;;;;;5116046;27;20508;-71
2021/07/06 02:38:32;;;;;;;5.07;2.60;;;;;;;;;;5102089;28;20733;-71
2021/07/06 02:40:59;;;;;;;4.90;2.70;;;;;;;;;;5099249;28;20448;-71
2021/07/06 02:43:26;;;;;;;5.03;2.30;;;;;;;;;;5117634;27;20843;-71
2021/07/06 02:45:54;;;;;;;4.97;2.30;;;;;;;;;;5117481;27;20451;-71
2021/07/06 02:48:21;;;;;;;5.03;2.30;;;;;;;;;;5116600;27;20462;-71
2021/07/06 02:50:51;;;;;;;5.37;2.07;;;;;;;;;;5116753;27;20469;-72
2021/07/06 02:53:18;;;;;;;4.60;2.43;;;;;;;;;;5097150;28;20459;-71
2021/07/06 02:55:45;;;;;;;4.87;2.00;;;;;;;;;;5096440;28;20460;-71
2021/07/06 02:58:12;;;;;;;4.40;2.10;;;;;;;;;;5097703;28;20882;-71
2021/07/06 03:00:40;;;;;;;4.13;2.23;;;;;;;;;;5112807;27;20443;-71
2021/07/06 03:03:08;;;;;;;5.60;1.93;;;;;;;;;;5117212;27;20457;-72
2021/07/06 03:05:36;;;;;;;5.03;2.50;;;;;;;;;;5116417;27;20459;-71
2021/07/06 03:08:04;;;;;;;4.10;2.40;;;;;;;;;;5116095;27;20443;-71
2021/07/06 03:10:32;;;;;;;4.80;2.07;;;;;;;;;;5111297;27;20471;-71
2021/07/06 03:12:59;;;;;;;5.40;2.43;;;;;;;;;;5096856;28;20944;-72
2021/07/06 03:15:27;;;;;;;4.03;2.23;;;;;;;;;;5116476;27;20753;-71
2021/07/06 03:17:54;;;;;;;5.43;2.40;;;;;;;;;;5111066;27;20454;-71
2021/07/06 03:20:22;;;;;;;4.70;2.70;;;;;;;;;;5098971;28;20483;-71
2021/07/06 03:22:52;;;;;;;4.40;2.23;;;;;;;;;;5111075;28;20442;-71
2021/07/06 03:25:21;;;;;;;5.47;2.27;;;;;;;;;;5115606;27;20866;-71
2021/07/06 03:27:48;;;;;;;4.83;2.67;;;;;;;;;;5116007;27;20511;-71
2021/07/06 03:30:17;;;;;;;5.07;2.27;;;;;;;;;;5114752;27;20451;-71
2021/07/06 03:32:44;;;;;;;6.63;2.10;;;;;;;;;;5116255;27;20478;-71
2021/07/06 03:35:11;;;;;;;3.97;2.30;;;;;;;;;;5102636;28;20867;-71
2021/07/06 03:37:39;;;;;;;3.77;2.10;;;;;;;;;;5096903;28;20448;-71
2021/07/06 03:40:07;;;;;;;7.23;3.67;;;;;;;;;;5096806;28;20736;-72
2021/07/06 03:42:35;;;;;;;5.10;2.57;;;;;;;;;;5113382;28;21060;-71
2021/07/06 03:45:03;;;;;;;4.80;2.13;;;;;;;;;;5118804;27;20447;-71
2021/07/06 03:47:31;;;;;;;4.47;2.20;;;;;;;;;;5102167;28;20459;-71
2021/07/06 03:49:58;;;;;;;4.80;2.23;;;;;;;;;;5118853;27;20446;-71
2021/07/06 03:52:25;;;;;;;5.53;2.60;;;;;;;;;;5116821;27;20454;-71
2021/07/06 03:54:52;;;;;;;7.77;2.73;;;;;;;;;;5111811;27;20450;-72
2021/07/06 03:57:28;;;;;;;4.27;2.23;;;;;;;;;;5118285;28;20451;-71
2021/07/06 03:59:59;;;;;;;4.23;2.20;;;;;;;;;;5119133;27;20477;-71
2021/07/06 04:02:27;;;;;;;5.77;2.60;;;;;;;;;;5119549;27;20470;-72
2021/07/06 04:04:56;;;;;;;4.97;3.07;;;;;;;;;;5119986;27;20442;-72
2021/07/06 04:07:23;;;;;;;8.20;4.10;;;;;;;;;;5118661;27;20465;-71
2021/07/06 04:09:51;;;;;;;4.00;2.37;;;;;;;;;;5115427;28;20454;-71
2021/07/06 04:12:18;;;;;;;7.97;2.77;;;;;;;;;;5109781;27;20525;-72
2021/07/06 04:14:48;;;;;;;5.93;2.30;;;;;;;;;;5120434;27;20726;-71
2021/07/06 04:17:16;;;;;;;4.90;2.40;;;;;;;;;;5114901;27;20468;-71
2021/07/06 04:19:43;;;;;;;7.53;2.90;;;;;;;;;;5112290;28;20479;-71
2021/07/06 04:22:10;;;;;;;4.37;2.30;;;;;;;;;;5116262;27;20446;-72
2021/07/06 04:24:38;;;;;;;5.97;2.53;;;;;;;;;;5116989;27;20859;-71
2021/07/06 04:27:05;;;;;;;5.60;2.90;;;;;;;;;;5111561;27;20450;-71
2021/07/06 04:29:34;;;;;;;5.03;2.80;;;;;;;;;;5108928;28;20455;-71
2021/07/06 04:32:01;;;;;;;5.20;2.40;;;;;;;;;;5104212;28;20454;-71
2021/07/06 04:34:29;;;;;;;4.70;2.97;;;;;;;;;;5109111;28;20477;-71
2021/07/06 04:36:58;;;;;;;4.30;2.57;;;;;;;;;;5112106;27;20459;-71
2021/07/06 04:39:25;;;;;;;5.97;3.27;;;;;;;;;;5098174;28;20517;-71
2021/07/06 04:41:52;;;;;;;5.40;2.60;;;;;;;;;;5114435;27;20450;-71
2021/07/06 04:44:19;;;;;;;6.60;2.57;;;;;;;;;;5118144;27;20449;-71
2021/07/06 04:46:47;;;;;;;5.53;2.47;;;;;;;;;;5118005;27;20446;-71
2021/07/06 04:49:14;;;;;;;6.10;3.23;;;;;;;;;;5115111;27;20483;-71
2021/07/06 04:51:42;;;;;;;7.40;2.87;;;;;;;;;;5108166;27;20501;-71
2021/07/06 04:54:10;;;;;;;5.50;3.07;;;;;;;;;;5112392;28;20450;-71
2021/07/06 04:56:37;;;;;;;6.90;3.17;;;;;;;;;;5102575;28;20447;-71
2021/07/06 04:59:04;;;;;;;4.87;2.83;;;;;;;;;;5115195;27;20628;-71
2021/07/06 05:01:31;;;;;;;4.90;2.50;;;;;;;;;;5118242;27;20861;-71
2021/07/06 05:03:58;;;;;;;5.20;3.10;;;;;;;;;;5108658;27;20487;-71
2021/07/06 05:06:25;;;;;;;6.50;2.83;;;;;;;;;;5115430;27;21184;-71
2021/07/06 05:08:53;;;;;;;6.30;2.90;;;;;;;;;;5107529;28;20447;-71
2021/07/06 05:11:20;;;;;;;5.80;2.80;;;;;;;;;;5108200;27;20454;-71
2021/07/06 05:13:47;;;;;;;6.20;2.90;;;;;;;;;;5101219;28;20467;-71
2021/07/06 05:16:15;;;;;;;7.60;3.10;;;;;;;;;;5101323;27;20450;-71
2021/07/06 05:18:44;;;;;;;5.10;2.67;;;;;;;;;;5106141;28;20443;-71
2021/07/06 05:21:12;;;;;;;5.37;2.67;;;;;;;;;;5114636;28;20434;-71
2021/07/06 05:23:40;;;;;;;4.50;2.50;;;;;;;;;;5115380;27;20591;-71
2021/07/06 05:26:08;;;;;;;8.27;2.30;;;;;;;;;;5113506;27;20472;-71
2021/07/06 05:28:35;;;;;;;6.57;2.40;;;;;;;;;;5113752;27;20458;-71
2021/07/06 05:31:04;;;;;;;5.00;2.40;;;;;;;;;;5117169;27;20449;-71
2021/07/06 05:33:32;;;;;;;3.97;1.80;;;;;;;;;;5114736;27;20467;-71
2021/07/06 05:35:59;;;;;;;4.53;2.40;;;;;;;;;;5111073;27;20439;-71
2021/07/06 05:38:26;;;;;;;4.40;1.90;;;;;;;;;;5117763;27;20590;-71
2021/07/06 05:40:55;;;;;;;3.20;1.80;;;;;;;;;;5102303;28;20860;-71
2021/07/06 05:43:23;;;;;;;4.03;1.47;;;;;;;;;;5095186;28;20609;-72
2021/07/06 05:45:51;;;;;;;3.37;1.60;;;;;;;;;;5116914;27;20445;-71
2021/07/06 05:48:20;;;;;;;4.63;2.30;;;;;;;;;;5130718;27;20916;-71
2021/07/06 05:50:47;;;;;;;3.43;2.00;;;;;;;;;;5135831;27;20458;-71
2021/07/06 05:53:15;;;;;;;3.40;1.87;;;;;;;;;;5133478;27;20458;-71
2021/07/06 05:55:42;;;;;;;2.53;1.40;;;;;;;;;;5133935;27;20457;-70
2021/07/06 05:58:10;;;;;;;2.90;1.53;;;;;;;;;;5135033;27;20453;-70
2021/07/06 06:00:38;;;;;;;3.40;1.77;;;;;;;;;;5129526;27;20569;-69
2021/07/06 06:03:08;;;;;;;3.27;1.40;;;;;;;;;;5108447;28;20476;-70
2021/07/06 06:05:35;;;;;;;3.67;1.90;;;;;;;;;;5111086;27;20451;-72
2021/07/06 06:08:09;;;;;;;6.30;1.87;;;;;;;;;;5110709;27;20878;-73
2021/07/06 06:10:36;;;;;;;3.57;1.53;;;;;;;;;;5115461;27;20442;-72
2021/07/06 06:13:06;;;;;;;5.97;1.70;;;;;;;;;;5114816;27;20463;-72
2021/07/06 06:15:34;;;;;;;4.70;1.20;;;;;;;;;;5115963;27;20438;-70
2021/07/06 06:18:02;;;;;;;4.10;1.20;;;;;;;;;;5115619;27;20545;-70
2021/07/06 06:20:29;;;;;;;3.00;1.40;;;;;;;;;;5114241;28;20478;-70
2021/07/06 06:22:56;;;;;;;3.73;1.70;;;;;;;;;;5122841;28;20783;-71
2021/07/06 06:25:23;;;;;;;3.37;1.17;;;;;;;;;;5126040;27;20431;-72
2021/07/06 06:27:53;;;;;;;4.33;1.47;;;;;;;;;;5124367;27;20448;-71
2021/07/06 06:30:21;;;;;;;3.53;1.40;;;;;;;;;;5122772;27;20449;-71
2021/07/06 06:32:48;;;;;;;3.80;1.50;;;;;;;;;;5105187;28;20504;-70
2021/07/06 06:35:16;;;;;;;7.07;1.50;;;;;;;;;;5105551;27;20515;-71
2021/07/06 06:37:43;;;;;;;4.50;1.40;;;;;;;;;;5114778;28;20455;-71
2021/07/06 06:40:12;;;;;;;2.80;1.00;;;;;;;;;;5115550;27;20490;-71
2021/07/06 06:42:39;;;;;;;3.10;1.43;;;;;;;;;;5115299;27;20450;-70
2021/07/06 06:45:08;;;;;;;3.00;1.20;;;;;;;;;;5112822;27;20451;-71
2021/07/06 06:47:38;;;;;;;3.50;1.60;;;;;;;;;;5115314;27;20462;-70
2021/07/06 06:50:06;;;;;;;3.20;1.20;;;;;;;;;;5115790;27;20454;-71
2021/07/06 06:52:36;;;;;;;3.63;1.40;;;;;;;;;;5113034;27;20468;-71
2021/07/06 06:55:07;;;;;;;4.60;1.27;;;;;;;;;;5115862;27;20478;-70
2021/07/06 06:57:34;;;;;;;3.53;1.33;;;;;;;;;;5115161;27;20459;-70
2021/07/06 07:00:04;;;;;;;4.47;1.63;;;;;;;;;;5116155;27;20478;-71
2021/07/06 07:02:32;;;;;;;4.20;1.73;;;;;;;;;;5111826;27;21042;-71
2021/07/06 07:04:59;;;;;;;3.10;1.23;;;;;;;;;;5114669;27;20451;-71
2021/07/06 07:07:32;;;;;;;2.90;1.43;;;;;;;;;;5106685;27;20462;-70
2021/07/06 07:10:00;;;;;;;3.47;1.37;;;;;;;;;;5094180;28;20456;-70
2021/07/06 07:12:27;;;;;;;2.90;0.93;;;;;;;;;;5094735;28;20468;-71
2021/07/06 07:14:54;;;;;;;4.10;1.53;;;;;;;;;;5101213;27;20481;-71
2021/07/06 07:17:22;;;;;;;5.07;1.30;;;;;;;;;;5107788;28;20551;-71
2021/07/06 07:19:50;;;;;;;2.83;1.30;;;;;;;;;;5106117;27;20611;-71
2021/07/06 07:22:17;;;;;;;3.10;1.20;;;;;;;;;;5097969;28;20460;-71
2021/07/06 07:24:44;;;;;;;8.43;1.77;;;;;;;;;;5112402;27;20783;-71
2021/07/06 07:27:12;;;;;;;3.03;1.47;;;;;;;;;;5118941;27;20478;-71
2021/07/06 07:29:39;;;;;;;2.67;1.30;;;;;;;;;;5114240;27;20479;-71
2021/07/06 07:32:09;;;;;;;3.07;1.50;;;;;;;;;;5109608;28;20449;-71
2021/07/06 07:34:36;;;;;;;6.93;2.40;;;;;;;;;;5119466;27;20454;-71
2021/07/06 07:37:04;;;;;;;2.67;1.10;;;;;;;;;;5118795;27;20457;-70
2021/07/06 07:39:32;;;;;;;3.70;1.07;;;;;;;;;;5116522;27;20482;-71
2021/07/06 07:41:59;;;;;;;2.60;1.37;;;;;;;;;;5100133;28;20440;-72
2021/07/06 07:44:27;;;;;;;6.53;1.50;;;;;;;;;;5117961;27;20470;-71
2021/07/06 07:46:58;;;;;;;3.70;1.70;;;;;;;;;;5117643;27;20742;-72
2021/07/06 07:49:28;;;;;;;5.60;1.70;;;;;;;;;;5116705;27;20923;-72
2021/07/06 07:51:55;;;;;;;13.03;4.83;;;;;;;;;;5117001;27;20923;-71
2021/07/06 07:54:22;;;;;;;3.93;1.70;;;;;;;;;;5116807;27;20447;-71
2021/07/06 07:56:49;;;;;;;4.20;1.30;;;;;;;;;;5116938;27;20450;-71
2021/07/06 07:59:16;;;;;;;5.37;1.80;;;;;;;;;;5118062;27;21045;-71
2021/07/06 08:01:47;;;;;;;3.80;1.50;;;;;;;;;;5116729;27;20454;-71
2021/07/06 08:04:14;;;;;;;3.13;1.50;;;;;;;;;;5115144;28;20454;-71
2021/07/06 08:06:42;;;;;;;3.43;1.43;;;;;;;;;;5117431;27;20443;-70
2021/07/06 08:09:14;;;;;;;2.03;1.00;;;;;;;;;;5112966;27;20519;-70
2021/07/06 08:11:41;;;;;;;2.60;1.20;;;;;;;;;;5116706;27;20841;-70
2021/07/06 08:14:11;;;;;;;6.33;1.63;;;;;;;;;;5118077;27;20549;-70
2021/07/06 08:16:42;;;;;;;4.17;1.50;;;;;;;;;;5115512;27;20912;-70
2021/07/06 08:19:15;;;;;;;3.47;1.27;;;;;;;;;;5112723;27;20489;-70
2021/07/06 08:21:44;;;;;;;3.30;1.20;;;;;;;;;;5118664;27;20461;-70
2021/07/06 08:24:12;;;;;;;4.93;1.43;;;;;;;;;;5119631;27;20477;-70
2021/07/06 08:26:42;;;;;;;8.93;1.73;;;;;;;;;;5112090;27;20788;-69
2021/07/06 08:29:09;;;;;;;2.60;1.30;;;;;;;;;;5112725;28;20743;-69
2021/07/06 08:31:39;;;;;;;3.07;1.33;;;;;;;;;;5114301;27;20505;-69
2021/07/06 08:34:06;;;;;;;4.67;1.30;;;;;;;;;;5116959;28;20535;-70
2021/07/06 08:36:34;;;;;;;4.33;1.10;;;;;;;;;;5117247;27;20454;-69
2021/07/06 08:39:03;;;;;;;3.40;1.10;;;;;;;;;;5115697;28;20768;-70
2021/07/06 08:41:36;;;;;;;3.47;1.30;;;;;;;;;;5112819;28;20435;-71
2021/07/06 08:44:12;;;;;;;3.20;1.10;;;;;;;;;;5113622;28;20451;-70
2021/07/06 08:46:40;;;;;;;3.40;1.60;;;;;;;;;;5112594;27;20466;-69
2021/07/06 08:49:10;;;;;;;5.03;1.33;;;;;;;;;;5115552;28;20466;-69
2021/07/06 08:51:41;;;;;;;3.23;1.30;;;;;;;;;;5114969;27;20467;-69
2021/07/06 08:54:14;;;;;;;6.00;1.47;;;;;;;;;;5113747;27;20554;-69
2021/07/06 08:56:41;;;;;;;3.40;1.30;;;;;;;;;;5105367;28;20447;-70
2021/07/06 08:59:31;;;;;;;2.40;1.00;;;;;;;;;;5112401;28;20472;-71
2021/07/06 09:02:03;;;;;;;2.33;1.20;;;;;;;;;;5118883;27;20450;-70
2021/07/06 09:04:43;;;;;;;4.63;1.40;;;;;;;;;;5116158;27;20845;-70
2021/07/06 09:07:32;;;;;;;2.93;1.23;;;;;;;;;;5118401;27;20450;-71
2021/07/06 09:10:15;;;;;;;2.87;1.30;;;;;;;;;;5117772;28;20454;-71
2021/07/06 09:12:46;;;;;;;3.97;1.10;;;;;;;;;;5116521;28;20488;-73
2021/07/06 09:15:33;;;;;;;4.77;1.40;;;;;;;;;;5115906;28;20447;-70
2021/07/06 09:18:08;;;;;;;3.07;1.43;;;;;;;;;;5102742;28;20486;-70
2021/07/06 09:20:43;;;;;;;3.03;1.20;;;;;;;;;;5116517;27;20555;-70
2021/07/06 09:23:24;;;;;;;3.60;1.30;;;;;;;;;;5114883;27;20458;-70
2021/07/06 09:26:07;;;;;;;2.20;1.20;;;;;;;;;;5116206;28;20446;-70
2021/07/06 09:28:34;;;;;;;3.20;1.67;;;;;;;;;;5107752;28;20465;-70
2021/07/06 09:31:32;;;;;;;2.73;1.20;;;;;;;;;;5114028;28;20731;-71
2021/07/06 09:34:01;;;;;;;2.60;1.27;;;;;;;;;;5107814;28;20494;-70
2021/07/06 09:36:31;;;;;;;4.57;1.40;;;;;;;;;;5114614;28;20570;-72
2021/07/06 09:39:16;;;;;;;7.77;3.60;;;;;;;;;;5095776;28;20440;-72
2021/07/06 09:41:46;;;;;;;4.63;1.70;;;;;;;;;;5107670;27;20458;-73
2021/07/06 09:44:20;;;;;;;2.87;1.40;;;;;;;;;;5115745;28;20474;-73
2021/07/06 09:47:13;;;;;;;2.40;1.30;;;;;;;;;;5116795;27;20549;-73
2021/07/06 09:49:43;;;;;;;5.37;1.90;;;;;;;;;;5106381;28;20481;-73
2021/07/06 09:52:13;;;;;;;3.20;1.70;;;;;;;;;;5115218;27;20462;-73
2021/07/06 09:54:49;;;;;;;3.43;1.30;;;;;;;;;;5109936;28;20931;-74
2021/07/06 09:57:27;;;;;;;2.70;1.60;;;;;;;;;;5112905;27;20557;-73
2021/07/06 10:00:10;;;;;;;1.73;0.90;;;;;;;;;;5115515;28;20494;-74
2021/07/06 10:02:40;;;;;;;4.13;1.50;;;;;;;;;;5112646;27;20483;-73
2021/07/06 10:05:12;;;;;;;4.10;1.40;;;;;;;;;;5116623;27;20514;-73
2021/07/06 10:07:54;;;;;;;2.70;1.27;;;;;;;;;;5122029;27;20494;-72
2021/07/06 10:10:24;;;;;;;5.30;1.90;;;;;;;;;;5108408;27;20483;-71
2021/07/06 10:12:53;;;;;;;6.80;1.57;;;;;;;;;;5109001;28;20488;-73
2021/07/06 10:15:25;;;;;;;4.70;1.90;;;;;;;;;;5101329;27;20505;-72
2021/07/06 10:17:55;;;;;;;5.80;1.53;;;;;;;;;;5110609;27;20454;-70
2021/07/06 10:20:25;;;;;;;2.27;0.90;;;;;;;;;;5114908;27;20487;-70
2021/07/06 10:22:57;;;;;;;2.63;1.00;;;;;;;;;;5115478;27;20457;-71
2021/07/06 10:25:31;;;;;;;4.33;1.77;;;;;;;;;;5110167;27;20850;-72
2021/07/06 10:28:11;;;;;;;2.60;1.73;;;;;;;;;;5108024;28;20466;-72
2021/07/06 10:30:49;;;;;;;2.97;1.90;;;;;;;;;;5117123;27;20462;-72
2021/07/06 10:33:17;;;;;;;2.63;1.30;;;;;;;;;;5114958;27;20494;-71
2021/07/06 10:35:54;;;;;;;4.63;1.63;;;;;;;;;;5098591;28;20765;-72
2021/07/06 10:41:52;;;;;;;3.10;1.20;;;;;;;;;;5113668;27;20447;-73
2021/07/06 10:44:46;;;;;;;3.67;1.40;;;;;;;;;;5103950;27;20525;-70
2021/07/06 10:47:29;;;;;;;6.60;4.00;;;;;;;;;;5134315;27;20708;-71
2021/07/06 10:49:58;;;;;;;2.90;1.70;;;;;;;;;;5112006;27;20550;-72
2021/07/06 10:52:35;;;;;;;4.73;2.17;;;;;;;;;;5112831;27;20447;-71
2021/07/06 10:55:19;;;;;;;2.73;1.30;;;;;;;;;;5114725;27;20569;-71
2021/07/06 10:57:49;;;;;;;2.10;1.20;;;;;;;;;;5112358;27;20475;-71
2021/07/06 11:00:41;;;;;;;6.77;1.50;;;;;;;;;;5090770;28;20475;-71
2021/07/06 11:03:16;;;;;;;5.13;1.90;;;;;;;;;;5093405;28;20887;-71
2021/07/06 11:05:44;;;;;;;3.37;1.50;;;;;;;;;;5095172;28;20479;-71
2021/07/06 11:08:26;;;;;;;2.30;1.20;;;;;;;;;;5094176;28;20436;-70
2021/07/06 11:10:53;;;;;;;2.70;1.13;;;;;;;;;;5093283;28;20475;-70
2021/07/06 11:13:22;;;;;;;2.40;1.43;;;;;;;;;;5093421;28;20444;-70
2021/07/06 11:15:53;;;;;;;3.00;1.23;;;;;;;;;;5075014;28;20479;-70
2021/07/06 11:18:35;;;;;;;2.70;1.20;;;;;;;;;;5094170;28;20448;-71
2021/07/06 11:21:02;;;;;;;6.53;1.70;;;;;;;;;;5093167;28;20483;-72
2021/07/06 11:23:34;;;;;;;3.13;1.63;;;;;;;;;;5093531;28;20442;-72
2021/07/06 11:26:05;;;;;;;5.17;2.17;;;;;;;;;;5093235;28;20654;-72
2021/07/06 11:28:48;;;;;;;2.13;1.10;;;;;;;;;;5091802;28;20442;-72
2021/07/06 11:31:18;;;;;;;2.70;1.13;;;;;;;;;;5083694;28;20856;-72
2021/07/06 11:33:47;;;;;;;2.50;0.80;;;;;;;;;;5087362;28;20459;-72
2021/07/06 11:36:26;;;;;;;2.90;1.30;;;;;;;;;;5094028;28;20875;-73
2021/07/06 11:38:57;;;;;;;2.80;1.10;;;;;;;;;;5072924;28;20452;-72
2021/07/06 11:41:26;;;;;;;3.73;1.03;;;;;;;;;;5074072;28;20460;-72
2021/07/06 11:43:56;;;;;;;2.57;1.27;;;;;;;;;;5073495;28;20470;-72
2021/07/06 11:46:24;;;;;;;3.10;1.40;;;;;;;;;;5078290;28;20492;-72
2021/07/06 11:48:54;;;;;;;7.13;1.90;;;;;;;;;;5086510;28;20459;-73
2021/07/06 11:51:26;;;;;;;4.40;1.93;;;;;;;;;;5094019;28;20451;-72
2021/07/06 11:53:57;;;;;;;4.50;2.93;;;;;;;;;;5089937;28;20521;-72
2021/07/06 11:56:25;;;;;;;14.13;9.00;;;;;;;;;;5088543;28;20442;-72
2021/07/06 11:58:53;;;;;;;3.70;3.00;;;;;;;;;;5094725;28;20886;-73
2021/07/06 12:01:25;;;;;;;4.90;1.60;;;;;;;;;;5094783;28;20598;-71
2021/07/06 12:03:57;;;;;;;3.70;1.53;;;;;;;;;;5079122;28;20513;-70
2021/07/06 12:06:28;;;;;;;4.00;1.90;;;;;;;;;;5091274;28;20451;-70
2021/07/06 12:09:00;;;;;;;4.13;2.40;;;;;;;;;;5096778;28;20538;-71
2021/07/06 12:11:31;;;;;;;9.70;2.20;;;;;;;;;;5096706;28;20443;-71
2021/07/06 12:13:59;;;;;;;4.60;2.10;;;;;;;;;;5090090;28;20459;-71
2021/07/06 12:16:33;;;;;;;4.40;1.90;;;;;;;;;;5080789;28;21503;-71
2021/07/06 12:19:01;;;;;;;5.60;2.00;;;;;;;;;;5096393;28;20538;-71
2021/07/06 12:21:34;;;;;;;6.77;3.00;;;;;;;;;;5097844;28;20448;-70
2021/07/06 12:24:05;;;;;;;5.23;3.00;;;;;;;;;;5098577;28;20503;-72
2021/07/06 12:26:32;;;;;;;6.17;3.60;;;;;;;;;;5097759;28;20544;-72
2021/07/06 12:29:04;;;;;;;6.93;2.47;;;;;;;;;;5097413;28;20448;-72
2021/07/06 12:31:34;;;;;;;3.53;1.63;;;;;;;;;;5099453;28;20512;-72
2021/07/06 12:34:03;;;;;;;4.07;1.90;;;;;;;;;;5097988;28;20879;-70
2021/07/06 12:36:39;;;;;;;4.03;2.00;;;;;;;;;;5098196;28;20696;-72
2021/07/06 12:39:19;;;;;;;3.20;1.30;;;;;;;;;;5097583;28;20447;-71
2021/07/06 12:41:48;;;;;;;4.70;2.20;;;;;;;;;;5096869;28;20443;-71
2021/07/06 12:44:17;;;;;;;4.10;2.43;;;;;;;;;;5102206;28;20452;-71
2021/07/06 12:46:45;;;;;;;2.47;1.60;;;;;;;;;;5087766;28;20530;-72
2021/07/06 12:49:26;;;;;;;8.00;4.00;;;;;;;;;;5097521;28;20471;-71
2021/07/06 12:52:02;;;;;;;3.07;2.20;;;;;;;;;;5098015;28;20450;-70
2021/07/06 12:54:33;;;;;;;4.23;1.73;;;;;;;;;;5100168;28;20840;-71
2021/07/06 12:57:03;;;;;;;3.83;1.50;;;;;;;;;;5092091;28;20471;-70
2021/07/06 12:59:34;;;;;;;4.47;1.97;;;;;;;;;;5097076;28;20489;-70
2021/07/06 13:02:20;;;;;;;3.50;1.67;;;;;;;;;;5096062;28;20924;-70
2021/07/06 13:04:57;;;;;;;2.53;1.40;;;;;;;;;;5084462;28;20594;-71
2021/07/06 13:07:26;;;;;;;2.80;1.33;;;;;;;;;;5097414;28;20843;-70
2021/07/06 13:10:04;;;;;;;6.33;1.70;;;;;;;;;;5096290;28;20560;-70
2021/07/06 13:12:32;;;;;;;3.80;1.50;;;;;;;;;;5095985;28;20763;-70
2021/07/06 13:15:02;;;;;;;4.10;1.73;;;;;;;;;;5094945;28;20448;-71
2021/07/06 13:17:30;;;;;;;5.97;1.60;;;;;;;;;;5096479;28;20471;-72
2021/07/06 13:20:12;;;;;;;3.93;2.40;;;;;;;;;;5096614;28;20580;-71
2021/07/06 13:22:41;;;;;;;6.93;2.60;;;;;;;;;;5093744;28;20456;-71
2021/07/06 13:25:10;;;;;;;3.97;1.53;;;;;;;;;;5087550;28;20453;-71
2021/07/06 13:27:38;;;;;;;4.43;1.50;;;;;;;;;;5077551;28;20555;-70
2021/07/06 13:30:18;;;;;;;4.60;3.03;;;;;;;;;;5096572;28;20447;-71
2021/07/06 13:32:55;;;;;;;5.70;2.20;;;;;;;;;;5096347;28;20739;-71
2021/07/06 13:35:22;;;;;;;3.60;1.80;;;;;;;;;;5095526;28;20483;-71
2021/07/06 13:37:50;;;;;;;4.03;2.43;;;;;;;;;;5095859;28;20891;-70
2021/07/06 13:40:18;;;;;;;2.60;1.87;;;;;;;;;;5094237;28;20499;-70
2021/07/06 13:42:49;;;;;;;3.40;1.70;;;;;;;;;;5084904;28;20459;-70
2021/07/06 13:45:16;;;;;;;2.77;1.63;;;;;;;;;;5073921;28;20464;-70
2021/07/06 13:47:45;;;;;;;4.80;2.60;;;;;;;;;;5074475;28;20453;-70
2021/07/06 13:50:16;;;;;;;3.97;2.13;;;;;;;;;;5075574;28;20452;-72
2021/07/06 13:53:09;;;;;;;2.50;1.47;;;;;;;;;;5076812;28;20919;-72
2021/07/06 13:55:43;;;;;;;4.37;1.63;;;;;;;;;;5007555;28;20581;-72
2021/07/06 13:58:15;;;;;;;3.73;1.80;;;;;;;;;;5095734;28;20722;-71
2021/07/06 14:00:51;;;;;;;5.10;3.20;;;;;;;;;;5097263;28;20823;-72
2021/07/06 14:03:31;;;;;;;4.10;1.80;;;;;;;;;;5084341;28;20966;-71
2021/07/06 14:06:06;;;;;;;3.53;2.00;;;;;;;;;;5075886;28;20512;-72
2021/07/06 14:08:38;;;;;;;5.63;1.77;;;;;;;;;;5076324;28;20467;-71
2021/07/06 14:11:15;;;;;;;5.47;2.10;;;;;;;;;;5093611;28;20781;-71
2021/07/06 14:13:51;;;;;;;4.83;2.10;;;;;;;;;;5097594;28;20549;-73
2021/07/06 14:16:48;;;;;;;3.10;1.57;;;;;;;;;;5099351;28;20444;-71
2021/07/06 14:19:20;;;;;;;3.87;1.50;;;;;;;;;;5086145;28;20471;-72
2021/07/06 14:21:51;;;;;;;2.83;1.80;;;;;;;;;;5082030;28;20596;-73
2021/07/06 14:24:19;;;;;;;4.70;1.80;;;;;;;;;;5092877;28;20528;-71
2021/07/06 14:26:59;;;;;;;3.53;1.43;;;;;;;;;;5095852;28;20839;-72
2021/07/06 14:36:05;;;;;;;5.70;1.67;;;;;;;;;;5076092;28;20464;-72
2021/07/06 14:38:43;;;;;;;4.23;1.60;;;;;;;;;;5093364;28;20462;-71
2021/07/06 14:41:14;;;;;;;4.73;2.00;;;;;;;;;;5091577;28;20512;-72
2021/07/06 14:44:08;;;;;;;6.30;1.90;;;;;;;;;;5093815;28;20468;-73
2021/07/06 14:46:37;;;;;;;4.57;1.83;;;;;;;;;;5077805;28;20495;-72
2021/07/06 14:49:06;;;;;;;5.03;1.73;;;;;;;;;;5078240;28;20514;-72
2021/07/06 14:51:36;;;;;;;5.83;2.53;;;;;;;;;;5095386;28;20475;-72
2021/07/06 14:54:04;;;;;;;3.90;1.40;;;;;;;;;;5092454;28;20954;-71
2021/07/06 14:56:31;;;;;;;3.70;1.80;;;;;;;;;;5094457;28;20495;-71
2021/07/06 14:58:58;;;;;;;6.10;1.90;;;;;;;;;;5092674;28;20448;-71
2021/07/06 15:01:26;;;;;;;3.90;1.30;;;;;;;;;;5094885;28;20547;-71
2021/07/06 15:03:53;;;;;;;6.60;2.20;;;;;;;;;;5093071;28;20463;-72
2021/07/06 15:06:25;;;;;;;3.30;1.43;;;;;;;;;;5093106;28;20539;-71
2021/07/06 15:08:56;;;;;;;4.30;1.50;;;;;;;;;;5094970;28;20455;-72
2021/07/06 15:11:24;;;;;;;3.40;1.50;;;;;;;;;;5089406;28;20537;-72